createdAt,value
2016-03-22T00:00:58.861Z,1013.3
2016-03-22T00:01:58.864Z,1013.34
2016-03-22T00:02:58.881Z,1013.36
2016-03-22T00:03:58.901Z,1013.33
2016-03-22T00:04:58.919Z,1013.33
2016-03-22T00:06:11.659Z,1013.33
2016-03-22T00:06:58.940Z,1013.28
2016-03-22T00:08:18.163Z,1013.26
2016-03-22T00:08:58.991Z,1013.29
2016-03-22T00:09:59.010Z,1013.25
2016-03-22T00:10:59.013Z,1013.24
2016-03-22T00:11:59.016Z,1013.18
2016-03-22T00:12:59.050Z,1013.2
2016-03-22T00:14:11.804Z,1013.21
2016-03-22T00:15:05.355Z,1013.26
2016-03-22T00:15:59.105Z,1013.18
2016-03-22T00:17:11.859Z,1013.21
2016-03-22T00:18:24.800Z,1013.21
2016-03-22T00:18:59.144Z,1013.16
2016-03-22T00:19:59.162Z,1013.15
2016-03-22T00:20:59.180Z,1013.12
2016-03-22T00:21:59.199Z,1013.11
2016-03-22T00:22:59.217Z,1013.09
2016-03-22T00:23:59.235Z,1013.1
2016-03-22T00:25:05.521Z,1013.11
2016-03-22T00:25:59.271Z,1013.12
2016-03-22T00:26:59.290Z,1013.13
2016-03-22T00:28:12.029Z,1013.18
2016-03-22T00:28:59.311Z,1013.21
2016-03-22T00:29:59.329Z,1013.18
2016-03-22T00:30:59.347Z,1013.18
2016-03-22T00:31:59.366Z,1013.18
2016-03-22T00:32:59.383Z,1013.14
2016-03-22T00:33:59.386Z,1013.13
2016-03-22T00:35:18.626Z,1013.08
2016-03-22T00:35:59.438Z,1013.09
2016-03-22T00:36:59.441Z,1013.04
2016-03-22T00:37:59.459Z,1013.03
2016-03-22T00:38:59.478Z,1013.05
2016-03-22T00:39:59.496Z,1013.05
2016-03-22T00:40:59.515Z,1013.07
2016-03-22T00:41:59.532Z,1013.02
2016-03-22T00:43:12.288Z,1013
2016-03-22T00:43:59.569Z,1013
2016-03-22T00:44:59.587Z,1013.01
2016-03-22T00:45:59.590Z,1013.02
2016-03-22T00:46:59.609Z,1013.05
2016-03-22T00:47:59.627Z,1013
2016-03-22T00:48:59.645Z,1013.06
2016-03-22T00:50:00.257Z,1013.06
2016-03-22T00:50:59.667Z,1013.13
2016-03-22T00:51:59.684Z,1013.03
2016-03-22T00:53:12.439Z,1013
2016-03-22T00:53:59.720Z,1013.17
2016-03-22T00:54:59.740Z,1013.15
2016-03-22T00:55:59.758Z,1013.21
2016-03-22T00:56:59.776Z,1013.23
2016-03-22T00:57:59.794Z,1013.27
2016-03-22T00:58:59.813Z,1013.29
2016-03-22T00:59:59.830Z,1013.33
2016-03-22T01:00:59.850Z,1013.27
2016-03-22T01:01:59.867Z,1013.32
2016-03-22T01:02:59.869Z,1013.39
2016-03-22T01:03:59.889Z,1013.36
2016-03-22T01:05:12.644Z,1013.32
2016-03-22T01:05:59.925Z,1013.23
2016-03-22T01:07:19.149Z,1013.22
2016-03-22T01:07:59.946Z,1013.17
2016-03-22T01:08:59.980Z,1013.16
2016-03-22T01:10:00.186Z,1013.21
2016-03-22T01:11:00.001Z,1013.17
2016-03-22T01:12:00.019Z,1013.17
2016-03-22T01:13:00.038Z,1013.12
2016-03-22T01:14:12.794Z,1013.13
2016-03-22T01:15:00.060Z,1013.1
2016-03-22T01:16:00.124Z,1013.04
2016-03-22T01:17:00.096Z,1013.04
2016-03-22T01:18:00.114Z,1013.07
2016-03-22T01:19:00.132Z,1013.06
2016-03-22T01:20:00.150Z,1013.13
2016-03-22T01:21:00.168Z,1013.19
2016-03-22T01:22:00.171Z,1013.22
2016-03-22T01:23:06.474Z,1013.17
2016-03-22T01:24:00.209Z,1013.08
2016-03-22T01:25:00.226Z,1013.14
2016-03-22T01:26:19.451Z,1013.09
2016-03-22T01:27:00.264Z,1013.1
2016-03-22T01:28:00.266Z,1013.11
2016-03-22T01:29:00.284Z,1013.12
2016-03-22T01:30:00.302Z,1013.14
2016-03-22T01:31:09.886Z,1013.11
2016-03-22T01:32:09.889Z,1013.11
2016-03-22T01:33:22.641Z,1013.07
2016-03-22T01:34:09.925Z,1013.07
2016-03-22T01:35:09.944Z,1013.05
2016-03-22T01:36:09.961Z,1013.06
2016-03-22T01:37:09.980Z,1013.03
2016-03-22T01:38:09.982Z,1013.02
2016-03-22T01:39:10.002Z,1013.03
2016-03-22T01:40:10.035Z,1013.01
2016-03-22T01:41:10.038Z,1013.03
2016-03-22T01:42:22.790Z,1013.01
2016-03-22T01:43:22.793Z,1013
2016-03-22T01:44:10.077Z,1013.02
2016-03-22T01:45:10.110Z,1012.95
2016-03-22T01:46:10.113Z,1012.97
2016-03-22T01:47:10.131Z,1012.93
2016-03-22T01:48:10.151Z,1012.93
2016-03-22T01:49:10.153Z,1012.95
2016-03-22T01:50:10.187Z,1012.95
2016-03-22T01:51:10.190Z,1012.94
2016-03-22T01:52:10.411Z,1012.94
2016-03-22T01:53:10.211Z,1012.92
2016-03-22T01:54:10.245Z,1012.85
2016-03-22T01:55:10.262Z,1012.89
2016-03-22T01:56:10.265Z,1012.9
2016-03-22T01:57:10.280Z,1012.89
2016-03-22T01:58:10.269Z,1012.89
2016-03-22T01:59:10.290Z,1012.84
2016-03-22T02:00:10.295Z,1012.85
2016-03-22T02:01:10.300Z,1012.86
2016-03-22T02:02:10.292Z,1012.81
2016-03-22T02:03:10.320Z,1012.82
2016-03-22T02:04:10.318Z,1012.83
2016-03-22T02:05:10.331Z,1012.82
2016-03-22T02:06:10.344Z,1012.83
2016-03-22T02:07:10.359Z,1012.78
2016-03-22T02:08:10.376Z,1012.81
2016-03-22T02:09:10.376Z,1012.78
2016-03-22T02:10:10.393Z,1012.77
2016-03-22T02:11:16.676Z,1012.75
2016-03-22T02:12:10.427Z,1012.75
2016-03-22T02:13:10.444Z,1012.75
2016-03-22T02:14:10.461Z,1012.74
2016-03-22T02:15:10.464Z,1012.74
2016-03-22T02:16:10.481Z,1012.76
2016-03-22T02:17:10.515Z,1012.75
2016-03-22T02:18:10.518Z,1012.77
2016-03-22T02:19:10.536Z,1012.75
2016-03-22T02:20:10.555Z,1012.76
2016-03-22T02:21:10.558Z,1012.74
2016-03-22T02:22:10.575Z,1012.72
2016-03-22T02:23:10.594Z,1012.69
2016-03-22T02:24:10.612Z,1012.71
2016-03-22T02:25:10.630Z,1012.68
2016-03-22T02:26:29.852Z,1012.68
2016-03-22T02:27:10.667Z,1012.62
2016-03-22T02:28:10.669Z,1012.65
2016-03-22T02:29:10.688Z,1012.65
2016-03-22T02:30:10.696Z,1012.64
2016-03-22T02:31:10.713Z,1012.67
2016-03-22T02:32:10.732Z,1012.7
2016-03-22T02:33:10.751Z,1012.67
2016-03-22T02:34:10.768Z,1012.67
2016-03-22T02:35:10.788Z,1012.67
2016-03-22T02:36:10.790Z,1012.67
2016-03-22T02:37:10.808Z,1012.64
2016-03-22T02:38:10.826Z,1012.62
2016-03-22T02:39:10.845Z,1012.65
2016-03-22T02:40:10.847Z,1012.61
2016-03-22T02:41:10.882Z,1012.61
2016-03-22T02:42:10.884Z,1012.6
2016-03-22T02:43:11.511Z,1012.6
2016-03-22T02:44:10.921Z,1012.58
2016-03-22T02:45:10.923Z,1012.62
2016-03-22T02:46:10.941Z,1012.61
2016-03-22T02:47:10.960Z,1012.6
2016-03-22T02:48:36.650Z,1012.59
2016-03-22T02:49:10.997Z,1012.62
2016-03-22T02:50:11.015Z,1012.65
2016-03-22T02:51:11.017Z,1012.61
2016-03-22T02:52:11.052Z,1012.63
2016-03-22T02:53:11.055Z,1012.63
2016-03-22T02:54:11.088Z,1012.69
2016-03-22T02:55:11.091Z,1012.7
2016-03-22T02:56:11.125Z,1012.69
2016-03-22T02:57:17.378Z,1012.67
2016-03-22T02:58:11.130Z,1012.67
2016-03-22T02:59:30.352Z,1012.62
2016-03-22T03:00:14.229Z,1012.66
2016-03-22T03:01:14.294Z,1012.65
2016-03-22T03:02:14.251Z,1012.7
2016-03-22T03:03:14.284Z,1012.66
2016-03-22T03:04:14.287Z,1012.65
2016-03-22T03:05:14.305Z,1012.6
2016-03-22T03:06:14.324Z,1012.6
2016-03-22T03:07:14.342Z,1012.56
2016-03-22T03:08:14.360Z,1012.56
2016-03-22T03:09:14.363Z,1012.58
2016-03-22T03:10:14.397Z,1012.53
2016-03-22T03:11:14.400Z,1012.51
2016-03-22T03:12:14.528Z,1012.54
2016-03-22T03:13:14.436Z,1012.53
2016-03-22T03:14:14.486Z,1012.54
2016-03-22T03:15:14.457Z,1012.54
2016-03-22T03:16:14.475Z,1012.54
2016-03-22T03:17:27.229Z,1012.51
2016-03-22T03:18:27.231Z,1012.49
2016-03-22T03:19:14.514Z,1012.49
2016-03-22T03:20:14.534Z,1012.48
2016-03-22T03:21:14.552Z,1012.53
2016-03-22T03:22:14.569Z,1012.54
2016-03-22T03:23:14.588Z,1012.55
2016-03-22T03:24:20.872Z,1012.56
2016-03-22T03:25:14.624Z,1012.54
2016-03-22T03:26:33.847Z,1012.55
2016-03-22T03:27:14.646Z,1012.56
2016-03-22T03:28:14.663Z,1012.56
2016-03-22T03:29:14.730Z,1012.55
2016-03-22T03:30:16.122Z,1012.6
2016-03-22T03:31:14.719Z,1012.57
2016-03-22T03:32:14.737Z,1012.58
2016-03-22T03:33:14.740Z,1012.64
2016-03-22T03:34:14.758Z,1012.63
2016-03-22T03:35:14.777Z,1012.62
2016-03-22T03:36:14.795Z,1012.66
2016-03-22T03:37:14.829Z,1012.62
2016-03-22T03:38:14.832Z,1012.63
2016-03-22T03:39:27.569Z,1012.67
2016-03-22T03:40:14.853Z,1012.65
2016-03-22T03:41:14.886Z,1012.64
2016-03-22T03:42:14.905Z,1012.65
2016-03-22T03:43:14.907Z,1012.6
2016-03-22T03:44:14.926Z,1012.55
2016-03-22T03:45:14.928Z,1012.56
2016-03-22T03:46:14.947Z,1012.61
2016-03-22T03:47:14.965Z,1012.57
2016-03-22T03:48:14.984Z,1012.57
2016-03-22T03:49:15.611Z,1012.57
2016-03-22T03:50:15.019Z,1012.57
2016-03-22T03:51:15.023Z,1012.6
2016-03-22T03:52:15.041Z,1012.61
2016-03-22T03:53:15.059Z,1012.62
2016-03-22T03:54:15.078Z,1012.64
2016-03-22T03:55:15.096Z,1012.64
2016-03-22T03:56:27.833Z,1012.61
2016-03-22T03:57:15.133Z,1012.67
2016-03-22T03:58:15.135Z,1012.64
2016-03-22T03:59:15.154Z,1012.64
2016-03-22T04:00:15.172Z,1012.64
2016-03-22T04:01:15.190Z,1012.65
2016-03-22T04:02:15.208Z,1012.64
2016-03-22T04:03:15.211Z,1012.62
2016-03-22T04:04:15.245Z,1012.61
2016-03-22T04:05:15.248Z,1012.62
2016-03-22T04:06:15.282Z,1012.62
2016-03-22T04:07:15.285Z,1012.59
2016-03-22T04:08:21.553Z,1012.62
2016-03-22T04:09:15.321Z,1012.65
2016-03-22T04:10:28.058Z,1012.63
2016-03-22T04:11:15.342Z,1012.63
2016-03-22T04:12:15.360Z,1012.63
2016-03-22T04:13:15.379Z,1012.58
2016-03-22T04:14:15.397Z,1012.6
2016-03-22T04:15:15.400Z,1012.59
2016-03-22T04:16:15.418Z,1012.59
2016-03-22T04:17:15.436Z,1012.59
2016-03-22T04:18:15.455Z,1012.55
2016-03-22T04:19:15.473Z,1012.56
2016-03-22T04:20:25.038Z,1012.56
2016-03-22T04:21:25.073Z,1012.56
2016-03-22T04:22:25.075Z,1012.6
2016-03-22T04:23:25.093Z,1012.54
2016-03-22T04:24:40.925Z,1012.54
2016-03-22T04:25:34.677Z,1012.56
2016-03-22T04:26:47.414Z,1012.54
2016-03-22T04:27:34.697Z,1012.57
2016-03-22T04:28:34.716Z,1012.55
2016-03-22T04:29:34.735Z,1012.55
2016-03-22T04:31:00.425Z,1012.56
2016-03-22T04:31:50.615Z,1012.55
2016-03-22T04:32:50.585Z,1012.59
2016-03-22T04:33:50.605Z,1012.6
2016-03-22T04:35:03.357Z,1012.57
2016-03-22T04:35:50.641Z,1012.56
2016-03-22T04:36:50.643Z,1012.6
2016-03-22T04:37:50.662Z,1012.57
2016-03-22T04:38:50.680Z,1012.58
2016-03-22T04:39:50.683Z,1012.57
2016-03-22T04:41:16.392Z,1012.56
2016-03-22T04:41:50.735Z,1012.57
2016-03-22T04:44:05.773Z,1012.59
2016-03-22T04:45:05.806Z,1012.59
2016-03-22T04:46:05.808Z,1012.61
2016-03-22T04:47:05.827Z,1012.6
2016-03-22T04:48:12.114Z,1012.58
2016-03-22T04:49:25.054Z,1012.54
2016-03-22T04:50:05.867Z,1012.57
2016-03-22T04:51:05.884Z,1012.56
2016-03-22T04:52:08.997Z,1012.55
2016-03-22T04:53:09.015Z,1012.55
2016-03-22T04:54:09.033Z,1012.5
2016-03-22T04:55:24.210Z,1012.55
2016-03-22T04:56:24.245Z,1012.52
2016-03-22T04:57:24.247Z,1012.5
2016-03-22T04:58:24.266Z,1012.47
2016-03-22T04:59:37.018Z,1012.49
2016-03-22T05:00:24.302Z,1012.46
2016-03-22T05:01:24.305Z,1012.47
2016-03-22T05:02:24.323Z,1012.49
2016-03-22T05:03:24.341Z,1012.53
2016-03-22T05:04:24.359Z,1012.52
2016-03-22T05:05:24.378Z,1012.54
2016-03-22T05:06:37.130Z,1012.55
2016-03-22T05:07:37.149Z,1012.57
2016-03-22T05:08:24.433Z,1012.56
2016-03-22T05:09:24.513Z,1012.55
2016-03-22T05:10:24.454Z,1012.52
2016-03-22T05:11:24.473Z,1012.49
2016-03-22T05:12:37.225Z,1012.48
2016-03-22T05:13:24.509Z,1012.48
2016-03-22T05:14:24.527Z,1012.5
2016-03-22T05:15:34.154Z,1012.52
2016-03-22T05:16:59.815Z,1012.49
2016-03-22T05:17:43.739Z,1012.51
2016-03-22T05:18:43.742Z,1012.41
2016-03-22T05:21:18.203Z,1012.45
2016-03-22T05:21:59.015Z,1012.45
2016-03-22T05:24:11.663Z,1012.42
2016-03-22T05:25:11.666Z,1012.4
2016-03-22T05:26:17.919Z,1012.37
2016-03-22T05:27:40.562Z,1012.38
2016-03-22T05:28:27.644Z,1012.36
2016-03-22T05:30:30.758Z,1012.34
2016-03-22T05:31:30.776Z,1012.31
2016-03-22T05:32:30.794Z,1012.31
2016-03-22T05:34:05.188Z,1012.34
2016-03-22T05:35:05.205Z,1012.35
2016-03-22T05:36:14.790Z,1012.38
2016-03-22T05:38:55.727Z,1012.36
2016-03-22T05:39:55.872Z,1012.34
2016-03-22T05:40:55.741Z,1012.37
2016-03-22T05:43:37.234Z,1012.35
2016-03-22T05:44:11.580Z,1012.41
2016-03-22T05:45:11.599Z,1012.38
2016-03-22T05:46:26.789Z,1012.36
2016-03-22T05:47:26.807Z,1012.32
2016-03-22T05:50:07.578Z,1012.33
2016-03-22T05:50:41.877Z,1012.32
2016-03-22T05:51:41.897Z,1012.32
2016-03-22T05:52:41.915Z,1012.36
2016-03-22T05:53:41.933Z,1012.34
2016-03-22T05:55:01.154Z,1012.33
2016-03-22T05:56:05.766Z,1012.34
2016-03-22T05:57:46.631Z,1012.31
2016-03-22T05:58:46.635Z,1012.33
2016-03-22T05:59:56.059Z,1012.34
2016-03-22T06:01:21.735Z,1012.31
2016-03-22T06:02:05.642Z,1012.31
2016-03-22T06:03:15.210Z,1012.34
2016-03-22T06:04:15.212Z,1012.36
2016-03-22T06:06:43.374Z,1012.3
2016-03-22T06:07:30.658Z,1012.33
2016-03-22T06:08:49.879Z,1012.31
2016-03-22T06:09:36.961Z,1012.34
2016-03-22T06:10:50.151Z,1012.32
2016-03-22T06:11:36.997Z,1012.31
2016-03-22T06:12:30.733Z,1012.32
2016-03-22T06:13:30.753Z,1012.3
2016-03-22T06:14:30.770Z,1012.3
2016-03-22T06:15:30.789Z,1012.29
2016-03-22T06:16:30.807Z,1012.27
2016-03-22T06:17:30.810Z,1012.3
2016-03-22T06:18:30.827Z,1012.27
2016-03-22T06:19:30.846Z,1012.26
2016-03-22T06:20:30.866Z,1012.3
2016-03-22T06:21:30.883Z,1012.3
2016-03-22T06:22:43.652Z,1012.33
2016-03-22T06:23:30.919Z,1012.36
2016-03-22T06:24:30.938Z,1012.35
2016-03-22T06:25:30.941Z,1012.39
2016-03-22T06:26:30.974Z,1012.41
2016-03-22T06:27:30.977Z,1012.41
2016-03-22T06:28:31.011Z,1012.4
2016-03-22T06:29:31.015Z,1012.41
2016-03-22T06:30:31.032Z,1012.37
2016-03-22T06:31:43.801Z,1012.38
2016-03-22T06:32:31.069Z,1012.4
2016-03-22T06:33:56.759Z,1012.45
2016-03-22T06:34:35.153Z,1012.41
2016-03-22T06:35:35.170Z,1012.44
2016-03-22T06:36:50.393Z,1012.42
2016-03-22T06:37:50.411Z,1012.42
2016-03-22T06:38:50.460Z,1012.51
2016-03-22T06:39:50.447Z,1012.5
2016-03-22T06:40:50.450Z,1012.5
2016-03-22T06:41:50.484Z,1012.47
2016-03-22T06:42:50.595Z,1012.47
2016-03-22T06:43:50.506Z,1012.46
2016-03-22T06:44:50.523Z,1012.46
2016-03-22T06:46:03.292Z,1012.48
2016-03-22T06:46:51.169Z,1012.49
2016-03-22T06:48:09.781Z,1012.48
2016-03-22T06:48:53.674Z,1012.54
2016-03-22T06:49:53.677Z,1012.55
2016-03-22T06:50:53.710Z,1012.56
2016-03-22T06:51:53.729Z,1012.63
2016-03-22T06:52:53.747Z,1012.6
2016-03-22T06:53:53.766Z,1012.62
2016-03-22T06:54:53.988Z,1012.59
2016-03-22T06:55:53.802Z,1012.63
2016-03-22T06:56:53.821Z,1012.61
2016-03-22T06:58:06.573Z,1012.69
2016-03-22T06:59:00.124Z,1012.62
2016-03-22T06:59:53.860Z,1012.62
2016-03-22T07:00:53.879Z,1012.61
2016-03-22T07:01:53.912Z,1012.63
2016-03-22T07:02:53.931Z,1012.62
2016-03-22T07:03:53.949Z,1012.59
2016-03-22T07:05:00.233Z,1012.61
2016-03-22T07:05:53.987Z,1012.59
2016-03-22T07:06:54.004Z,1012.58
2016-03-22T07:08:00.293Z,1012.64
2016-03-22T07:08:54.045Z,1012.67
2016-03-22T07:09:54.064Z,1012.59
2016-03-22T07:10:54.083Z,1012.59
2016-03-22T07:11:54.100Z,1012.57
2016-03-22T07:12:54.120Z,1012.6
2016-03-22T07:13:54.122Z,1012.61
2016-03-22T07:14:54.156Z,1012.58
2016-03-22T07:15:54.174Z,1012.57
2016-03-22T07:17:00.474Z,1012.59
2016-03-22T07:17:55.633Z,1012.57
2016-03-22T07:18:54.229Z,1012.57
2016-03-22T07:19:54.247Z,1012.54
2016-03-22T07:20:54.265Z,1012.55
2016-03-22T07:21:54.283Z,1012.53
2016-03-22T07:22:54.302Z,1012.51
2016-03-22T07:23:54.335Z,1012.46
2016-03-22T07:24:54.338Z,1012.52
2016-03-22T07:25:54.373Z,1012.51
2016-03-22T07:26:54.375Z,1012.53
2016-03-22T07:27:54.409Z,1012.5
2016-03-22T07:29:07.193Z,1012.5
2016-03-22T07:29:54.430Z,1012.5
2016-03-22T07:30:54.511Z,1012.51
2016-03-22T07:32:07.201Z,1012.5
2016-03-22T07:33:20.159Z,1012.46
2016-03-22T07:34:07.237Z,1012.55
2016-03-22T07:34:54.537Z,1012.53
2016-03-22T07:35:54.540Z,1012.5
2016-03-22T07:36:54.574Z,1012.5
2016-03-22T07:37:54.576Z,1012.48
2016-03-22T07:38:54.595Z,1012.51
2016-03-22T07:39:54.614Z,1012.56
2016-03-22T07:40:54.631Z,1012.54
2016-03-22T07:41:54.650Z,1012.51
2016-03-22T07:42:54.668Z,1012.49
2016-03-22T07:43:54.781Z,1012.51
2016-03-22T07:44:54.705Z,1012.51
2016-03-22T07:46:07.473Z,1012.52
2016-03-22T07:47:07.476Z,1012.57
2016-03-22T07:48:13.981Z,1012.55
2016-03-22T07:48:54.794Z,1012.54
2016-03-22T07:50:20.472Z,1012.55
2016-03-22T07:50:54.831Z,1012.58
2016-03-22T07:53:10.070Z,1012.53
2016-03-22T07:54:10.229Z,1012.56
2016-03-22T07:55:22.843Z,1012.59
2016-03-22T07:56:10.171Z,1012.53
2016-03-22T07:57:10.143Z,1012.58
2016-03-22T07:58:10.162Z,1012.62
2016-03-22T07:59:10.274Z,1012.57
2016-03-22T08:00:10.292Z,1012.55
2016-03-22T08:01:10.263Z,1012.55
2016-03-22T08:02:10.282Z,1012.55
2016-03-22T08:03:10.315Z,1012.5
2016-03-22T08:04:10.318Z,1012.52
2016-03-22T08:05:10.493Z,1012.57
2016-03-22T08:06:10.308Z,1012.61
2016-03-22T08:07:10.530Z,1012.6
2016-03-22T08:08:10.345Z,1012.58
2016-03-22T08:09:10.520Z,1012.62
2016-03-22T08:10:10.381Z,1012.59
2016-03-22T08:11:10.572Z,1012.6
2016-03-22T08:12:10.418Z,1012.59
2016-03-22T08:13:23.236Z,1012.61
2016-03-22T08:14:10.455Z,1012.6
2016-03-22T08:15:10.489Z,1012.63
2016-03-22T08:16:10.507Z,1012.65
2016-03-22T08:17:10.525Z,1012.71
2016-03-22T08:18:23.281Z,1012.67
2016-03-22T08:19:10.562Z,1012.68
2016-03-22T08:20:36.255Z,1012.63
2016-03-22T08:21:20.163Z,1012.64
2016-03-22T08:22:20.183Z,1012.69
2016-03-22T08:23:20.200Z,1012.65
2016-03-22T08:24:20.282Z,1012.67
2016-03-22T08:25:20.237Z,1012.6
2016-03-22T08:26:20.255Z,1012.65
2016-03-22T08:27:20.274Z,1012.63
2016-03-22T08:28:20.293Z,1012.63
2016-03-22T08:29:20.311Z,1012.65
2016-03-22T08:30:26.610Z,1012.62
2016-03-22T08:31:20.362Z,1012.58
2016-03-22T08:32:39.584Z,1012.6
2016-03-22T08:33:20.493Z,1012.6
2016-03-22T08:34:20.511Z,1012.62
2016-03-22T08:35:20.732Z,1012.59
2016-03-22T08:36:20.563Z,1012.66
2016-03-22T08:37:20.692Z,1012.63
2016-03-22T08:38:26.819Z,1012.65
2016-03-22T08:39:20.556Z,1012.65
2016-03-22T08:40:20.543Z,1012.66
2016-03-22T08:41:20.655Z,1012.67
2016-03-22T08:42:20.580Z,1012.64
2016-03-22T08:43:33.426Z,1012.6
2016-03-22T08:44:20.617Z,1012.65
2016-03-22T08:45:20.634Z,1012.68
2016-03-22T08:46:20.652Z,1012.7
2016-03-22T08:47:20.672Z,1012.67
2016-03-22T08:48:20.689Z,1012.72
2016-03-22T08:49:20.708Z,1012.71
2016-03-22T08:50:20.773Z,1012.74
2016-03-22T08:51:20.760Z,1012.76
2016-03-22T08:52:33.513Z,1012.78
2016-03-22T08:53:20.796Z,1012.77
2016-03-22T08:54:20.816Z,1012.8
2016-03-22T08:55:21.427Z,1012.72
2016-03-22T08:56:33.570Z,1012.78
2016-03-22T08:57:20.871Z,1012.73
2016-03-22T08:58:20.888Z,1012.7
2016-03-22T08:59:33.641Z,1012.67
2016-03-22T09:00:21.535Z,1012.72
2016-03-22T09:01:20.944Z,1012.73
2016-03-22T09:02:20.977Z,1012.74
2016-03-22T09:03:20.979Z,1012.74
2016-03-22T09:04:21.014Z,1012.68
2016-03-22T09:05:21.017Z,1012.68
2016-03-22T09:06:21.051Z,1012.73
2016-03-22T09:07:21.066Z,1012.72
2016-03-22T09:08:27.350Z,1012.75
2016-03-22T09:09:21.118Z,1012.8
2016-03-22T09:10:21.120Z,1012.73
2016-03-22T09:11:21.139Z,1012.76
2016-03-22T09:12:21.158Z,1012.72
2016-03-22T09:13:21.192Z,1012.72
2016-03-22T09:14:21.194Z,1012.73
2016-03-22T09:15:21.228Z,1012.73
2016-03-22T09:16:21.246Z,1012.76
2016-03-22T09:17:21.249Z,1012.7
2016-03-22T09:18:21.266Z,1012.73
2016-03-22T09:19:21.317Z,1012.71
2016-03-22T09:20:21.335Z,1012.68
2016-03-22T09:21:21.337Z,1012.7
2016-03-22T09:22:24.449Z,1012.7
2016-03-22T09:23:24.452Z,1012.7
2016-03-22T09:24:24.487Z,1012.78
2016-03-22T09:25:30.770Z,1012.73
2016-03-22T09:26:24.524Z,1012.73
2016-03-22T09:27:24.541Z,1012.68
2016-03-22T09:28:24.575Z,1012.73
2016-03-22T09:29:24.578Z,1012.71
2016-03-22T09:30:24.596Z,1012.66
2016-03-22T09:31:37.349Z,1012.67
2016-03-22T09:32:24.633Z,1012.68
2016-03-22T09:33:24.667Z,1012.71
2016-03-22T09:34:24.685Z,1012.72
2016-03-22T09:35:24.687Z,1012.77
2016-03-22T09:36:37.441Z,1012.74
2016-03-22T09:37:24.725Z,1012.76
2016-03-22T09:38:24.805Z,1012.71
2016-03-22T09:39:24.777Z,1012.72
2016-03-22T09:40:24.795Z,1012.76
2016-03-22T09:41:24.829Z,1012.76
2016-03-22T09:42:24.831Z,1012.79
2016-03-22T09:43:24.850Z,1012.74
2016-03-22T09:44:24.883Z,1012.72
2016-03-22T09:45:24.903Z,1012.7
2016-03-22T09:46:24.936Z,1012.74
2016-03-22T09:47:24.939Z,1012.72
2016-03-22T09:48:24.957Z,1012.71
2016-03-22T09:49:24.975Z,1012.72
2016-03-22T09:50:25.010Z,1012.69
2016-03-22T09:51:25.012Z,1012.77
2016-03-22T09:52:25.046Z,1012.75
2016-03-22T09:53:25.658Z,1012.72
2016-03-22T09:54:25.067Z,1012.66
2016-03-22T09:55:37.836Z,1012.66
2016-03-22T09:56:25.119Z,1012.67
2016-03-22T09:57:25.138Z,1012.67
2016-03-22T09:58:25.749Z,1012.71
2016-03-22T09:59:25.190Z,1012.76
2016-03-22T10:00:25.209Z,1012.81
2016-03-22T10:01:25.226Z,1012.84
2016-03-22T10:02:25.229Z,1012.8
2016-03-22T10:03:37.998Z,1012.74
2016-03-22T10:04:25.281Z,1012.73
2016-03-22T10:05:25.316Z,1012.76
2016-03-22T10:06:25.318Z,1012.72
2016-03-22T10:07:25.336Z,1012.74
2016-03-22T10:08:25.371Z,1012.77
2016-03-22T10:09:25.389Z,1012.66
2016-03-22T10:10:25.407Z,1012.68
2016-03-22T10:11:25.441Z,1012.66
2016-03-22T10:12:25.444Z,1012.65
2016-03-22T10:13:25.665Z,1012.63
2016-03-22T10:14:25.481Z,1012.63
2016-03-22T10:15:25.499Z,1012.58
2016-03-22T10:16:25.533Z,1012.64
2016-03-22T10:17:25.550Z,1012.66
2016-03-22T10:18:25.569Z,1012.64
2016-03-22T10:19:25.603Z,1012.59
2016-03-22T10:20:25.605Z,1012.58
2016-03-22T10:21:25.640Z,1012.53
2016-03-22T10:22:25.658Z,1012.55
2016-03-22T10:23:25.676Z,1012.51
2016-03-22T10:24:25.694Z,1012.53
2016-03-22T10:25:25.729Z,1012.52
2016-03-22T10:26:25.732Z,1012.45
2016-03-22T10:27:25.749Z,1012.5
2016-03-22T10:28:25.784Z,1012.51
2016-03-22T10:29:25.818Z,1012.52
2016-03-22T10:30:25.835Z,1012.53
2016-03-22T10:31:25.854Z,1012.5
2016-03-22T10:32:25.873Z,1012.52
2016-03-22T10:33:25.890Z,1012.5
2016-03-22T10:34:25.909Z,1012.52
2016-03-22T10:35:25.928Z,1012.56
2016-03-22T10:36:25.962Z,1012.53
2016-03-22T10:37:25.964Z,1012.54
2016-03-22T10:38:25.998Z,1012.55
2016-03-22T10:39:26.017Z,1012.53
2016-03-22T10:40:26.019Z,1012.54
2016-03-22T10:41:26.052Z,1012.57
2016-03-22T10:42:38.805Z,1012.56
2016-03-22T10:43:26.089Z,1012.61
2016-03-22T10:44:26.108Z,1012.61
2016-03-22T10:45:26.736Z,1012.58
2016-03-22T10:46:26.144Z,1012.6
2016-03-22T10:47:26.163Z,1012.57
2016-03-22T10:48:26.322Z,1012.56
2016-03-22T10:49:26.216Z,1012.53
2016-03-22T10:50:26.280Z,1012.57
2016-03-22T10:51:26.251Z,1012.61
2016-03-22T10:52:26.363Z,1012.57
2016-03-22T10:53:26.304Z,1012.6
2016-03-22T10:54:26.307Z,1012.57
2016-03-22T10:55:32.607Z,1012.6
2016-03-22T10:56:26.343Z,1012.62
2016-03-22T10:57:39.112Z,1012.64
2016-03-22T10:58:26.395Z,1012.6
2016-03-22T10:59:26.414Z,1012.57
2016-03-22T11:00:26.432Z,1012.63
2016-03-22T11:01:26.606Z,1012.64
2016-03-22T11:02:26.469Z,1012.67
2016-03-22T11:03:26.501Z,1012.58
2016-03-22T11:04:26.498Z,1012.65
2016-03-22T11:05:45.728Z,1012.65
2016-03-22T11:06:26.536Z,1012.63
2016-03-22T11:07:26.566Z,1012.63
2016-03-22T11:08:26.578Z,1012.65
2016-03-22T11:09:26.578Z,1012.64
2016-03-22T11:10:26.611Z,1012.63
2016-03-22T11:11:26.642Z,1012.67
2016-03-22T11:12:26.643Z,1012.61
2016-03-22T11:13:32.924Z,1012.6
2016-03-22T11:14:32.958Z,1012.57
2016-03-22T11:15:26.710Z,1012.64
2016-03-22T11:16:26.743Z,1012.62
2016-03-22T11:17:26.760Z,1012.57
2016-03-22T11:18:26.763Z,1012.48
2016-03-22T11:19:26.795Z,1012.53
2016-03-22T11:20:26.813Z,1012.49
2016-03-22T11:21:26.832Z,1012.46
2016-03-22T11:22:26.865Z,1012.47
2016-03-22T11:23:26.868Z,1012.5
2016-03-22T11:24:28.308Z,1012.58
2016-03-22T11:25:26.904Z,1012.47
2016-03-22T11:26:26.938Z,1012.54
2016-03-22T11:27:26.957Z,1012.57
2016-03-22T11:28:28.397Z,1012.57
2016-03-22T11:29:39.728Z,1012.56
2016-03-22T11:30:27.011Z,1012.59
2016-03-22T11:31:27.046Z,1012.6
2016-03-22T11:32:27.064Z,1012.56
2016-03-22T11:33:27.082Z,1012.59
2016-03-22T11:34:27.694Z,1012.59
2016-03-22T11:35:27.119Z,1012.67
2016-03-22T11:36:27.137Z,1012.69
2016-03-22T11:37:27.156Z,1012.67
2016-03-22T11:38:27.174Z,1012.65
2016-03-22T11:39:27.207Z,1012.61
2016-03-22T11:40:27.820Z,1012.67
2016-03-22T11:41:27.244Z,1012.61
2016-03-22T11:42:46.466Z,1012.6
2016-03-22T11:43:27.281Z,1012.54
2016-03-22T11:44:27.299Z,1012.59
2016-03-22T11:45:27.318Z,1012.55
2016-03-22T11:46:27.352Z,1012.56
2016-03-22T11:47:27.369Z,1012.49
2016-03-22T11:48:27.404Z,1012.53
2016-03-22T11:49:46.624Z,1012.56
2016-03-22T11:50:27.425Z,1012.56
2016-03-22T11:51:27.443Z,1012.55
2016-03-22T11:52:27.462Z,1012.57
2016-03-22T11:53:28.089Z,1012.66
2016-03-22T11:54:27.513Z,1012.64
2016-03-22T11:55:27.532Z,1012.6
2016-03-22T11:56:27.551Z,1012.64
2016-03-22T11:57:27.568Z,1012.63
2016-03-22T11:58:27.790Z,1012.67
2016-03-22T11:59:27.606Z,1012.69
2016-03-22T12:00:27.623Z,1012.58
2016-03-22T12:01:27.657Z,1012.66
2016-03-22T12:02:27.676Z,1012.61
2016-03-22T12:03:27.678Z,1012.77
2016-03-22T12:04:27.697Z,1012.72
2016-03-22T12:05:27.934Z,1012.64
2016-03-22T12:06:27.749Z,1012.58
2016-03-22T12:07:27.767Z,1012.57
2016-03-22T12:08:27.785Z,1012.54
2016-03-22T12:09:40.539Z,1012.58
2016-03-22T12:10:27.822Z,1012.63
2016-03-22T12:11:27.856Z,1012.57
2016-03-22T12:12:27.859Z,1012.54
2016-03-22T12:13:27.893Z,1012.58
2016-03-22T12:14:40.646Z,1012.58
2016-03-22T12:15:27.914Z,1012.55
2016-03-22T12:16:27.947Z,1012.59
2016-03-22T12:17:27.966Z,1012.58
2016-03-22T12:18:27.999Z,1012.57
2016-03-22T12:19:28.003Z,1012.58
2016-03-22T12:20:28.021Z,1012.65
2016-03-22T12:21:28.055Z,1012.59
2016-03-22T12:22:28.074Z,1012.53
2016-03-22T12:23:28.091Z,1012.62
2016-03-22T12:24:28.110Z,1012.55
2016-03-22T12:25:28.129Z,1012.59